Time;durP1;ratioP1;P1;durP2;ratioP2;P2;SDS_P1;SDS_P2;PMS_P1;PMS_P2;Temp;Humidity;BMP_temperature;BMP_pressure;BME280_temperature;BME280_humidity;BME280_pressure;Samples;Min_cycle;Max_cycle;Signal;HPM_P1;HPM_P2
2022/12/28 00:02:17;;;;;;;0.40;0.40;;;;;;;-144.22;100.00;60274.75;6293340;28;20226;-67
2022/12/28 00:05:20;;;;;;;1.37;0.40;;;;;;;-144.22;100.00;60274.75;6289232;28;20210;-67
2022/12/28 00:08:22;;;;;;;0.87;0.43;;;;;;;-144.22;100.00;60274.75;6275827;28;20371;-67
2022/12/28 00:11:26;;;;;;;0.30;0.30;;;;;;;-144.22;100.00;60274.75;6290915;28;20217;-67
2022/12/28 00:14:32;;;;;;;1.57;0.53;;;;;;;-144.22;100.00;60274.75;6284871;28;20236;-67
2022/12/28 00:17:34;;;;;;;0.80;0.60;;;;;;;-144.22;100.00;60274.75;6300261;28;20241;-67
2022/12/28 00:20:36;;;;;;;0.40;0.23;;;;;;;-144.22;100.00;60274.75;6298537;28;20650;-67
2022/12/28 00:23:38;;;;;;;0.77;0.33;;;;;;;-144.22;100.00;60274.75;6278069;28;20283;-67
2022/12/28 00:26:40;;;;;;;1.07;0.40;;;;;;;-144.22;100.00;60274.75;6297147;28;20323;-67
2022/12/28 00:29:44;;;;;;;0.97;0.30;;;;;;;-144.22;100.00;60274.75;6291219;28;20218;-67
2022/12/28 00:32:46;;;;;;;0.53;0.40;;;;;;;-144.22;100.00;60274.75;6294784;28;20222;-67
2022/12/28 00:35:57;;;;;;;0.63;0.57;;;;;;;-144.22;100.00;60274.75;6277905;28;20234;-67
2022/12/28 00:39:00;;;;;;;2.10;0.60;;;;;;;-144.22;100.00;60274.75;6264790;28;20234;-67
2022/12/28 00:42:02;;;;;;;1.03;0.50;;;;;;;-144.22;100.00;60274.75;6275242;28;20303;-67
2022/12/28 00:45:04;;;;;;;0.80;0.57;;;;;;;-144.22;100.00;60274.75;6291878;28;20241;-67
2022/12/28 00:48:06;;;;;;;0.50;0.50;;;;;;;-144.22;100.00;60274.75;6294003;28;20221;-67
2022/12/28 00:51:15;;;;;;;0.73;0.60;;;;;;;-144.22;100.00;60274.75;6295358;28;20222;-67
2022/12/28 00:54:17;;;;;;;1.63;0.63;;;;;;;-144.22;100.00;60274.75;6282021;28;20352;-67
2022/12/28 00:57:19;;;;;;;1.33;0.73;;;;;;;-144.22;100.00;60274.75;6277090;28;20737;-67
2022/12/28 01:00:21;;;;;;;0.87;0.60;;;;;;;-144.22;100.00;60274.75;6291510;28;20210;-67
2022/12/28 01:03:23;;;;;;;2.67;0.60;;;;;;;-144.22;100.00;60274.75;6275942;28;20690;-67
2022/12/28 01:06:26;;;;;;;1.53;0.77;;;;;;;-144.22;100.00;60274.75;6293420;28;20593;-67
2022/12/28 01:09:28;;;;;;;1.73;0.53;;;;;;;-144.22;100.00;60274.75;6276236;28;20316;-67
2022/12/28 01:12:30;;;;;;;1.37;0.90;;;;;;;-144.22;100.00;60274.75;6276662;28;20229;-67
2022/12/28 01:15:39;;;;;;;3.70;1.10;;;;;;;-144.22;100.00;60274.75;6293793;28;20235;-67
2022/12/28 01:18:42;;;;;;;2.57;1.07;;;;;;;-144.22;100.00;60274.75;6279503;28;20238;-67
2022/12/28 01:21:47;;;;;;;1.30;0.77;;;;;;;-144.22;100.00;60274.75;6293493;28;20233;-67
2022/12/28 01:24:49;;;;;;;1.43;1.33;;;;;;;-144.22;100.00;60274.75;6272833;28;20325;-67
2022/12/28 01:27:51;;;;;;;1.73;1.00;;;;;;;-144.22;100.00;60274.75;6293501;28;20295;-67
2022/12/28 01:30:54;;;;;;;1.70;1.30;;;;;;;-144.22;100.00;60274.75;6293598;28;20320;-67
2022/12/28 01:33:56;;;;;;;2.60;1.37;;;;;;;-144.22;100.00;60274.75;6293490;28;20329;-67
2022/12/28 01:36:58;;;;;;;3.20;1.27;;;;;;;-144.22;100.00;60274.75;6295868;28;20259;-67
2022/12/28 01:40:01;;;;;;;1.80;1.23;;;;;;;-144.22;100.00;60274.75;6295288;28;20230;-67
2022/12/28 01:43:12;;;;;;;2.50;1.00;;;;;;;-144.22;100.00;60274.75;6294402;28;20760;-67
2022/12/28 01:46:24;;;;;;;2.67;1.10;;;;;;;-144.22;100.00;60274.75;6288624;28;20304;-67
2022/12/28 01:49:47;;;;;;;2.70;1.37;;;;;;;-144.22;100.00;60274.75;6294981;28;20313;-67
2022/12/28 01:52:54;;;;;;;2.07;1.30;;;;;;;-144.22;100.00;60274.75;6274962;28;20244;-67
2022/12/28 01:55:56;;;;;;;2.23;1.50;;;;;;;-144.22;100.00;60274.75;6274631;28;20266;-67
2022/12/28 01:58:59;;;;;;;2.00;1.10;;;;;;;-144.22;100.00;60274.75;6278332;28;20223;-67
2022/12/28 02:02:01;;;;;;;2.90;1.27;;;;;;;-144.22;100.00;60274.75;6275762;28;20717;-67
2022/12/28 02:05:04;;;;;;;3.57;1.13;;;;;;;-144.22;100.00;60274.75;6275507;28;20226;-67
2022/12/28 02:08:21;;;;;;;1.83;1.10;;;;;;;-144.22;100.00;60274.75;6277707;28;20789;-67
2022/12/28 02:11:23;;;;;;;1.37;1.10;;;;;;;-144.22;100.00;60274.75;6274712;28;20303;-67
2022/12/28 02:14:26;;;;;;;3.07;1.30;;;;;;;-144.22;100.00;60274.75;6292062;28;20234;-67
2022/12/28 02:17:28;;;;;;;1.97;1.00;;;;;;;-144.22;100.00;60274.75;6282335;28;20241;-67
2022/12/28 02:20:56;;;;;;;1.40;1.13;;;;;;;-144.22;100.00;60274.75;6276240;28;20229;-67
2022/12/28 02:24:16;;;;;;;1.80;1.20;;;;;;;-144.22;100.00;60274.75;6278939;28;20717;-67
2022/12/28 02:27:41;;;;;;;2.03;1.33;;;;;;;-144.22;100.00;60274.75;6252624;28;20315;-67
2022/12/28 02:30:56;;;;;;;1.73;1.27;;;;;;;-144.22;100.00;60274.75;6267784;28;20328;-67
2022/12/28 02:34:21;;;;;;;2.07;1.17;;;;;;;-144.22;100.00;60274.75;6267359;28;20227;-67
2022/12/28 02:37:33;;;;;;;1.40;1.00;;;;;;;-144.22;100.00;60274.75;6266987;28;20266;-67
2022/12/28 02:41:16;;;;;;;0.90;0.83;;;;;;;-144.22;100.00;60274.75;6266419;28;20238;-67
2022/12/28 02:50:04;;;;;;;1.63;0.90;;;;;;;-144.22;100.00;60274.75;6268952;28;20231;-67
2022/12/28 02:51:19;;;;;;;1.73;0.90;;;;;;;-144.22;100.00;60274.75;6266721;28;20698;-67
2022/12/28 02:58:46;;;;;;;1.97;1.20;;;;;;;-144.22;100.00;60274.75;6275819;28;20628;-67
2022/12/28 03:02:06;;;;;;;1.27;1.17;;;;;;;-144.22;100.00;60274.75;6282735;28;20222;-67
2022/12/28 03:09:12;;;;;;;2.17;1.30;;;;;;;-144.22;100.00;60274.75;6280464;28;20595;-67
2022/12/28 03:12:37;;;;;;;1.50;1.00;;;;;;;-144.22;100.00;60274.75;6266026;28;20215;-67
2022/12/28 03:15:39;;;;;;;1.20;1.03;;;;;;;-144.22;100.00;60274.75;6266888;28;20237;-67
2022/12/28 03:32:26;;;;;;;1.30;0.93;;;;;;;-144.22;100.00;60274.75;6289688;28;20222;-67
2022/12/28 03:35:58;;;;;;;1.50;1.20;;;;;;;-144.22;100.00;60274.75;6270101;28;20219;-67
2022/12/28 03:39:19;;;;;;;1.30;1.10;;;;;;;-144.22;100.00;60274.75;6289984;28;20226;-67
2022/12/28 03:46:00;;;;;;;1.30;1.17;;;;;;;-144.22;100.00;60274.75;6271423;28;20222;-67
2022/12/28 03:49:03;;;;;;;1.20;1.00;;;;;;;-144.22;100.00;60274.75;6299454;28;20387;-67
2022/12/28 03:52:08;;;;;;;1.80;1.57;;;;;;;-144.22;100.00;60274.75;6289135;28;20256;-67
2022/12/28 03:55:13;;;;;;;2.33;1.53;;;;;;;-144.22;100.00;60274.75;6289332;28;20257;-67
2022/12/28 03:58:15;;;;;;;2.23;1.70;;;;;;;-144.22;100.00;60274.75;6286980;28;20768;-67
2022/12/28 04:01:17;;;;;;;2.67;1.40;;;;;;;-144.22;100.00;60274.75;6265996;28;20231;-67
2022/12/28 04:04:20;;;;;;;1.60;1.40;;;;;;;-144.22;100.00;60274.75;6277295;28;20279;-67
2022/12/28 04:07:24;;;;;;;2.83;2.10;;;;;;;-144.22;100.00;60274.75;6296212;28;20241;-67
2022/12/28 04:10:27;;;;;;;4.17;1.40;;;;;;;-144.22;100.00;60274.75;6280576;28;20778;-67
2022/12/28 04:13:30;;;;;;;2.33;1.80;;;;;;;-144.22;100.00;60274.75;6295396;28;20222;-67
2022/12/28 04:16:45;;;;;;;2.73;1.87;;;;;;;-144.22;100.00;60274.75;6296472;28;20311;-67
2022/12/28 04:19:49;;;;;;;2.80;2.10;;;;;;;-144.22;100.00;60274.75;6281395;28;20234;-67
2022/12/28 04:22:52;;;;;;;3.27;2.07;;;;;;;-144.22;100.00;60274.75;6297702;28;20644;-66
2022/12/28 04:26:06;;;;;;;2.77;1.70;;;;;;;-144.22;100.00;60274.75;6277639;28;20594;-67
2022/12/28 04:29:09;;;;;;;2.23;1.77;;;;;;;-144.22;100.00;60274.75;6281000;28;20258;-67
2022/12/28 04:32:11;;;;;;;5.07;1.93;;;;;;;-144.22;100.00;60274.75;6299928;28;20283;-67
2022/12/28 04:35:13;;;;;;;4.73;1.87;;;;;;;-144.22;100.00;60274.75;6298333;28;20234;-67
2022/12/28 04:38:22;;;;;;;3.07;2.00;;;;;;;-144.22;100.00;60274.75;6278358;28;20234;-67
2022/12/28 04:41:24;;;;;;;3.07;2.10;;;;;;;-144.22;100.00;60274.75;6299332;28;20225;-67
2022/12/28 04:44:27;;;;;;;3.70;1.93;;;;;;;-144.22;100.00;60274.75;6296006;28;20237;-67
2022/12/28 04:47:29;;;;;;;4.13;2.00;;;;;;;-144.22;100.00;60274.75;6298291;28;20226;-67
2022/12/28 04:50:31;;;;;;;2.90;1.63;;;;;;;-144.22;100.00;60274.75;6301158;28;20255;-67
2022/12/28 04:53:40;;;;;;;1.93;1.33;;;;;;;-144.22;100.00;60274.75;6297815;28;20229;-67
2022/12/28 04:56:42;;;;;;;3.63;2.17;;;;;;;-144.22;100.00;60274.75;6274964;28;20260;-67
2022/12/28 04:59:44;;;;;;;2.10;1.80;;;;;;;-144.22;100.00;60274.75;6275627;28;20232;-67
2022/12/28 05:02:46;;;;;;;2.43;1.77;;;;;;;-144.22;100.00;60274.75;6293833;28;20320;-67
2022/12/28 05:05:48;;;;;;;2.47;1.50;;;;;;;-144.22;100.00;60274.75;6292586;28;20699;-67
2022/12/28 05:08:51;;;;;;;3.27;1.90;;;;;;;-144.22;100.00;60274.75;6294481;28;20316;-67
2022/12/28 05:11:53;;;;;;;2.47;1.57;;;;;;;-144.22;100.00;60274.75;6283150;28;20253;-67
2022/12/28 05:14:55;;;;;;;3.07;1.60;;;;;;;-144.22;100.00;60274.75;6292843;28;20376;-67
2022/12/28 05:17:57;;;;;;;3.30;1.60;;;;;;;-144.22;100.00;60274.75;6293501;28;20350;-66
2022/12/28 05:21:12;;;;;;;1.37;1.23;;;;;;;-144.22;100.00;60274.75;6293330;28;20707;-67
2022/12/28 05:24:14;;;;;;;1.93;1.43;;;;;;;-144.22;100.00;60274.75;6291205;28;20583;-67
2022/12/28 05:27:18;;;;;;;3.40;1.33;;;;;;;-144.22;100.00;60274.75;6292071;28;20597;-67
2022/12/28 05:30:20;;;;;;;2.10;1.90;;;;;;;-144.22;100.00;60274.75;6292622;28;20238;-67
2022/12/28 05:33:22;;;;;;;1.97;1.57;;;;;;;-144.22;100.00;60274.75;6294870;28;20234;-67
2022/12/28 05:36:26;;;;;;;2.20;1.27;;;;;;;-144.22;100.00;60274.75;6286653;28;20227;-67
2022/12/28 05:39:28;;;;;;;2.23;1.23;;;;;;;-144.22;100.00;60274.75;6274095;28;20233;-67
2022/12/28 05:42:31;;;;;;;3.27;1.90;;;;;;;-144.22;100.00;60274.75;6292474;28;20226;-67
2022/12/28 05:45:33;;;;;;;2.03;1.53;;;;;;;-144.22;100.00;60274.75;6295246;28;20236;-67
2022/12/28 05:48:38;;;;;;;1.40;1.23;;;;;;;-144.22;100.00;60274.75;6293049;28;20229;-67
2022/12/28 05:51:40;;;;;;;2.87;1.70;;;;;;;-144.22;100.00;60274.75;6294634;28;20305;-67
2022/12/28 05:54:43;;;;;;;1.93;1.30;;;;;;;-144.22;100.00;60274.75;6293614;28;20268;-67
2022/12/28 05:57:45;;;;;;;3.10;1.37;;;;;;;-144.22;100.00;60274.75;6276060;28;20310;-67
2022/12/28 06:00:47;;;;;;;3.03;1.87;;;;;;;-144.22;100.00;60274.75;6294837;28;20254;-67
2022/12/28 06:03:54;;;;;;;1.67;1.23;;;;;;;-144.22;100.00;60274.75;6291760;28;20713;-67
2022/12/28 06:06:57;;;;;;;1.77;1.40;;;;;;;-144.22;100.00;60274.75;6292647;28;20595;-67
2022/12/28 06:09:59;;;;;;;1.90;1.27;;;;;;;-144.22;100.00;60274.75;6275722;28;20221;-67
2022/12/28 06:13:01;;;;;;;3.10;1.50;;;;;;;-144.22;100.00;60274.75;6293095;28;20316;-67
2022/12/28 06:16:18;;;;;;;2.17;1.40;;;;;;;-144.22;100.00;60274.75;6278822;28;20609;-67
2022/12/28 06:19:21;;;;;;;1.40;1.17;;;;;;;-144.22;100.00;60274.75;6291733;28;20237;-67
2022/12/28 06:22:23;;;;;;;2.53;1.30;;;;;;;-144.22;100.00;60274.75;6294989;28;20600;-67
2022/12/28 06:25:25;;;;;;;2.43;1.00;;;;;;;-144.22;100.00;60274.75;6274501;28;20237;-67
2022/12/28 06:28:27;;;;;;;2.30;1.30;;;;;;;-144.22;100.00;60274.75;6287245;28;20221;-67
2022/12/28 06:31:32;;;;;;;2.07;1.67;;;;;;;-144.22;100.00;60274.75;6292145;28;20758;-67
2022/12/28 06:34:35;;;;;;;1.40;1.00;;;;;;;-144.22;100.00;60274.75;6292032;28;20217;-67
2022/12/28 06:37:37;;;;;;;1.57;1.10;;;;;;;-144.22;100.00;60274.75;6275461;28;20242;-67
2022/12/28 06:40:39;;;;;;;4.97;1.70;;;;;;;-144.22;100.00;60274.75;6292731;28;20306;-67
2022/12/28 06:44:08;;;;;;;1.63;1.17;;;;;;;-144.22;100.00;60274.75;6291924;28;20257;-67
2022/12/28 06:47:10;;;;;;;1.70;1.10;;;;;;;-144.22;100.00;60274.75;6294114;28;20319;-67
2022/12/28 06:50:12;;;;;;;1.57;1.33;;;;;;;-144.22;100.00;60274.75;6276024;28;20364;-67
2022/12/28 06:53:14;;;;;;;2.40;1.27;;;;;;;-144.22;100.00;60274.75;6291112;28;20260;-67
2022/12/28 06:56:19;;;;;;;1.93;1.10;;;;;;;-144.22;100.00;60274.75;6290491;28;20234;-67
2022/12/28 06:59:21;;;;;;;2.67;1.20;;;;;;;-144.22;100.00;60274.75;6291114;28;20229;-67
2022/12/28 07:02:23;;;;;;;3.43;1.10;;;;;;;-144.22;100.00;60274.75;6272629;28;20603;-67
2022/12/28 07:05:26;;;;;;;1.50;1.07;;;;;;;-144.22;100.00;60274.75;6273129;28;20589;-67
2022/12/28 07:08:28;;;;;;;1.73;1.10;;;;;;;-144.22;100.00;60274.75;6291491;28;20702;-67
2022/12/28 07:11:31;;;;;;;1.70;1.00;;;;;;;-144.22;100.00;60274.75;6291160;28;20308;-67
2022/12/28 07:14:33;;;;;;;2.63;1.13;;;;;;;-144.22;100.00;60274.75;6287965;28;20231;-67
2022/12/28 07:17:35;;;;;;;2.70;1.03;;;;;;;-144.22;100.00;60274.75;6291541;28;20241;-67
2022/12/28 07:20:37;;;;;;;0.67;0.60;;;;;;;-144.22;100.00;60274.75;6289081;28;20230;-67
2022/12/28 07:23:41;;;;;;;1.30;0.97;;;;;;;-144.22;100.00;60274.75;6288111;28;20240;-67
2022/12/28 07:26:43;;;;;;;3.13;1.07;;;;;;;-144.22;100.00;60274.75;6289530;28;20779;-67
2022/12/28 07:29:47;;;;;;;1.40;0.93;;;;;;;-144.22;100.00;60274.75;6290055;28;20229;-67
2022/12/28 07:32:51;;;;;;;1.73;1.03;;;;;;;-144.22;100.00;60274.75;6292420;28;20268;-67
2022/12/28 07:35:53;;;;;;;1.40;1.10;;;;;;;-144.22;100.00;60274.75;6273996;28;20236;-67
2022/12/28 07:38:57;;;;;;;1.47;1.10;;;;;;;-144.22;100.00;60274.75;6256160;28;20238;-67
2022/12/28 07:41:59;;;;;;;1.53;0.90;;;;;;;-144.22;100.00;60274.75;6290241;28;20236;-67
2022/12/28 07:45:01;;;;;;;1.10;1.00;;;;;;;-144.22;100.00;60274.75;6285990;28;20284;-67
2022/12/28 07:48:03;;;;;;;1.73;0.90;;;;;;;-144.22;100.00;60274.75;6275098;28;20217;-67
2022/12/28 07:51:13;;;;;;;1.47;1.07;;;;;;;-144.22;100.00;60274.75;6294661;28;20223;-67
2022/12/28 07:54:15;;;;;;;2.57;1.00;;;;;;;-144.22;100.00;60274.75;6288757;28;20750;-67
2022/12/28 07:57:17;;;;;;;1.53;1.17;;;;;;;-144.22;100.00;60274.75;6279330;28;20233;-67
2022/12/28 08:00:21;;;;;;;2.10;1.30;;;;;;;-144.22;100.00;60274.75;6285812;28;20222;-67
2022/12/28 08:03:23;;;;;;;1.37;1.10;;;;;;;-144.22;100.00;60274.75;6289899;28;20692;-67
2022/12/28 08:06:27;;;;;;;1.47;0.90;;;;;;;-144.22;100.00;60274.75;6290603;28;20217;-67
2022/12/28 08:09:29;;;;;;;1.17;0.90;;;;;;;-144.22;100.00;60274.75;6290956;28;20762;-67
2022/12/28 08:12:31;;;;;;;1.77;1.23;;;;;;;-144.22;100.00;60274.75;6271706;28;20748;-67
2022/12/28 08:15:33;;;;;;;1.30;0.87;;;;;;;-144.22;100.00;60274.75;6254543;28;20229;-67
2022/12/28 08:18:35;;;;;;;1.53;1.07;;;;;;;-144.22;100.00;60274.75;6255943;28;20222;-67
2022/12/28 08:21:42;;;;;;;1.23;1.03;;;;;;;-144.22;100.00;60274.75;6291833;28;20228;-67
2022/12/28 08:24:44;;;;;;;1.40;1.10;;;;;;;-144.22;100.00;60274.75;6290769;28;20709;-67
2022/12/28 08:27:46;;;;;;;2.23;1.10;;;;;;;-144.22;100.00;60274.75;6290307;28;20329;-67
2022/12/28 08:30:48;;;;;;;0.93;0.80;;;;;;;-144.22;100.00;60274.75;6294201;28;20255;-67
2022/12/28 08:33:52;;;;;;;1.10;1.00;;;;;;;-144.22;100.00;60274.75;6285340;28;20885;-67
2022/12/28 08:36:55;;;;;;;1.63;1.10;;;;;;;-144.22;100.00;60274.75;6295120;28;20689;-67
2022/12/28 08:39:57;;;;;;;1.27;1.00;;;;;;;-144.22;100.00;60274.75;6258234;28;20614;-67
2022/12/28 08:42:59;;;;;;;1.47;1.00;;;;;;;-144.22;100.00;60274.75;6276367;28;20629;-67
2022/12/28 08:46:02;;;;;;;1.10;1.00;;;;;;;-144.22;100.00;60274.75;6275362;28;20253;-67
2022/12/28 08:49:04;;;;;;;1.17;0.87;;;;;;;-144.22;100.00;60274.75;6293651;28;20245;-67
2022/12/28 08:52:06;;;;;;;1.47;1.10;;;;;;;-144.22;100.00;60274.75;6295005;28;20248;-67
2022/12/28 08:55:09;;;;;;;1.47;1.07;;;;;;;-144.22;100.00;60274.75;6281422;28;20789;-67
2022/12/28 08:58:11;;;;;;;1.37;1.10;;;;;;;-144.22;100.00;60274.75;6290730;28;20234;-67
2022/12/28 09:01:17;;;;;;;2.30;0.93;;;;;;;-144.22;100.00;60274.75;6292974;28;20252;-67
2022/12/28 09:04:20;;;;;;;1.30;1.00;;;;;;;-144.22;100.00;60274.75;6293272;28;20596;-67
2022/12/28 09:07:22;;;;;;;1.13;0.93;;;;;;;-144.22;100.00;60274.75;6290562;28;20702;-67
2022/12/28 09:10:24;;;;;;;1.03;0.60;;;;;;;-144.22;100.00;60274.75;6279395;28;20590;-67
2022/12/28 09:13:27;;;;;;;1.27;1.03;;;;;;;-144.22;100.00;60274.75;6294279;28;20223;-67
2022/12/28 09:16:29;;;;;;;1.67;0.70;;;;;;;-144.22;100.00;60274.75;6292085;28;20726;-67
2022/12/28 09:19:31;;;;;;;1.10;0.90;;;;;;;-144.22;100.00;60274.75;6276589;28;20234;-67
2022/12/28 09:22:33;;;;;;;1.00;0.70;;;;;;;-144.22;100.00;60274.75;6275542;28;20312;-66
2022/12/28 09:25:36;;;;;;;2.37;0.70;;;;;;;6.46;100.00;78606.50;6258090;28;20705;-67
2022/12/28 09:28:38;;;;;;;0.80;0.80;;;;;;;-144.22;100.00;60274.75;6275634;28;20701;-67
2022/12/28 09:31:40;;;;;;;0.73;0.67;;;;;;;-144.22;100.00;60274.75;6299862;28;20752;-67
2022/12/28 09:34:43;;;;;;;1.17;0.70;;;;;;;-144.22;100.00;60274.75;6277914;28;20230;-67
2022/12/28 09:37:45;;;;;;;0.97;0.87;;;;;;;-144.22;100.00;60274.75;6275054;28;20254;-67
2022/12/28 09:40:47;;;;;;;1.43;0.80;;;;;;;-144.22;100.00;60274.75;6291943;28;20255;-67
2022/12/28 09:43:59;;;;;;;0.90;0.90;;;;;;;6.17;100.00;60274.75;6296265;28;20743;-67
2022/12/28 09:47:39;;;;;;;1.70;1.07;;;;;;;-144.22;100.00;60274.75;6292724;28;20237;-67
2022/12/28 09:50:42;;;;;;;1.80;1.20;;;;;;;-144.22;100.00;60274.75;6294079;28;20595;-67
2022/12/28 09:53:44;;;;;;;1.30;0.90;;;;;;;-144.22;100.00;60274.75;6292641;28;20230;-67
2022/12/28 09:56:47;;;;;;;1.53;1.13;;;;;;;3.38;100.00;60274.75;6292358;28;20225;-67
2022/12/28 09:59:52;;;;;;;1.10;1.00;;;;;;;-144.22;100.00;60274.75;6291816;28;20695;-67
2022/12/28 10:02:59;;;;;;;3.47;1.13;;;;;;;-144.22;100.00;60274.75;6291159;28;20255;-67
2022/12/28 10:06:04;;;;;;;0.97;0.90;;;;;;;-144.22;100.00;60274.75;6294532;28;20234;-67
2022/12/28 10:09:15;;;;;;;1.90;1.17;;;;;;;-144.22;100.00;60274.75;6299571;28;20822;-67
2022/12/28 10:12:21;;;;;;;2.33;1.20;;;;;;;-144.22;100.00;60274.75;6291855;28;20341;-67
2022/12/28 10:15:26;;;;;;;1.90;1.00;;;;;;;-144.22;100.00;60274.75;6261165;28;20224;-67
2022/12/28 10:18:28;;;;;;;1.77;1.00;;;;;;;-144.22;100.00;60274.75;6292135;28;20696;-67
2022/12/28 10:21:38;;;;;;;1.50;0.87;;;;;;;-144.22;100.00;60274.75;6292121;28;20228;-67
2022/12/28 10:24:41;;;;;;;1.77;1.40;;;;;;;188.01;100.00;60274.75;6272617;28;20309;-67
2022/12/28 10:27:43;;;;;;;2.43;1.90;;;;;;;-144.22;100.00;60274.75;6266045;28;20230;-67
2022/12/28 10:30:48;;;;;;;3.77;2.10;;;;;;;-144.22;100.00;60274.75;6268825;28;20744;-67
2022/12/28 10:33:53;;;;;;;3.70;1.87;;;;;;;-144.22;100.00;60274.75;6263090;28;20779;-67
2022/12/28 10:37:03;;;;;;;3.33;2.10;;;;;;;-144.22;100.00;60274.75;6268537;28;20325;-67
2022/12/28 10:40:26;;;;;;;2.97;1.97;;;;;;;-144.22;100.00;60274.75;6268656;28;20234;-68
2022/12/28 10:43:31;;;;;;;2.63;1.90;;;;;;;-144.22;100.00;60274.75;6270437;28;20603;-67
2022/12/28 10:46:34;;;;;;;3.33;2.00;;;;;;;-144.22;100.00;60274.75;6266720;28;20310;-68
2022/12/28 10:49:37;;;;;;;3.13;2.10;;;;;;;-144.22;100.00;60274.75;6269266;28;20234;-67
2022/12/28 10:52:39;;;;;;;3.00;2.03;;;;;;;188.01;100.00;60274.75;6249015;28;20713;-67
2022/12/28 10:55:41;;;;;;;2.90;1.70;;;;;;;-144.22;100.00;60274.75;6267361;28;20600;-67
2022/12/28 10:58:46;;;;;;;2.63;1.77;;;;;;;-144.22;100.00;60274.75;6263431;28;20614;-67
2022/12/28 11:01:48;;;;;;;2.27;1.50;;;;;;;6.17;100.00;60274.75;6268064;28;20290;-67
2022/12/28 11:04:58;;;;;;;2.47;1.77;;;;;;;-144.22;100.00;60274.75;6265080;28;20326;-67
2022/12/28 11:08:05;;;;;;;3.90;1.73;;;;;;;-144.22;100.00;60274.75;6265246;28;20235;-67
2022/12/28 11:11:17;;;;;;;3.07;1.70;;;;;;;5.41;100.00;60274.75;6267362;28;20223;-67
2022/12/28 11:14:25;;;;;;;5.77;2.10;;;;;;;-144.22;100.00;60274.75;6267629;28;20284;-67
2022/12/28 11:17:33;;;;;;;4.83;3.20;;;;;;;-144.22;100.00;60274.75;6267355;28;20309;-67
2022/12/28 11:20:40;;;;;;;3.93;3.00;;;;;;;-144.22;100.00;60274.75;6264349;28;20365;-67
2022/12/28 11:23:43;;;;;;;5.37;3.60;;;;;;;-144.22;100.00;60274.75;6269039;28;20706;-67
2022/12/28 11:26:49;;;;;;;5.47;3.63;;;;;;;-144.22;100.00;60274.75;6278985;28;20321;-67
2022/12/28 11:29:53;;;;;;;5.10;3.63;;;;;;;-144.22;100.00;60274.75;6269764;28;20582;-67
2022/12/28 11:33:03;;;;;;;4.60;3.40;;;;;;;-144.22;100.00;60274.75;6274669;28;20228;-67
2022/12/28 11:36:12;;;;;;;6.70;4.00;;;;;;;-144.22;100.00;60274.75;6290800;28;20215;-67
2022/12/28 11:39:26;;;;;;;9.00;4.63;;;;;;;-144.22;100.00;60274.75;6271824;28;20260;-67
2022/12/28 11:42:31;;;;;;;7.57;4.30;;;;;;;-144.22;100.00;60274.75;6288477;28;20307;-67
2022/12/28 11:45:54;;;;;;;7.37;4.50;;;;;;;-144.22;100.00;60274.75;6292467;28;20228;-67
2022/12/28 11:48:59;;;;;;;5.67;4.27;;;;;;;-144.22;100.00;60274.75;6273537;28;20596;-67
2022/12/28 11:52:29;;;;;;;6.20;4.20;;;;;;;-144.22;100.00;60274.75;6296061;28;20339;-67
2022/12/28 11:55:37;;;;;;;7.13;4.30;;;;;;;-144.22;100.00;60274.75;6281941;28;20231;-67
2022/12/28 11:58:39;;;;;;;7.93;4.47;;;;;;;-144.22;100.00;60274.75;6288572;28;20695;-67
2022/12/28 12:01:43;;;;;;;7.37;4.90;;;;;;;5.98;100.00;60274.75;6293087;28;20318;-67
2022/12/28 12:04:45;;;;;;;6.60;4.47;;;;;;;6.10;100.00;60274.75;6286859;28;20252;-67
2022/12/28 12:07:48;;;;;;;9.30;4.93;;;;;;;-144.22;100.00;60274.75;6286791;28;20642;-67
2022/12/28 12:11:25;;;;;;;11.07;5.17;;;;;;;-144.22;100.00;60274.75;6294438;28;20224;-67
2022/12/28 12:14:47;;;;;;;6.90;4.60;;;;;;;6.52;100.00;60274.75;6285261;28;20223;-67
2022/12/28 12:17:58;;;;;;;8.33;5.67;;;;;;;-144.22;100.00;60274.75;6280373;28;20330;-67
2022/12/28 12:21:06;;;;;;;7.70;5.40;;;;;;;7.47;100.00;60274.75;6279129;28;20236;-67
2022/12/28 12:24:25;;;;;;;7.47;5.40;;;;;;;7.61;100.00;60274.75;6293981;28;20275;-68
2022/12/28 12:27:38;;;;;;;7.97;5.53;;;;;;;7.86;100.00;60274.75;6266827;28;20597;-67
2022/12/28 12:30:41;;;;;;;8.00;5.07;;;;;;;7.86;100.00;98214.03;6258823;28;20344;-67
2022/12/28 12:33:47;;;;;;;7.00;5.23;;;;;;;7.86;100.00;60274.75;6269537;28;20589;-67
2022/12/28 12:37:40;;;;;;;10.33;5.40;;;;;;;7.86;100.00;98213.84;6267569;28;20266;-67
2022/12/28 12:41:08;;;;;;;7.70;5.00;;;;;;;7.86;100.00;98214.03;6254923;28;20711;-67
2022/12/28 12:44:51;;;;;;;6.87;4.90;;;;;;;7.86;100.00;98214.03;6268636;28;20230;-67
2022/12/28 12:48:08;;;;;;;8.90;4.60;;;;;;;7.86;100.00;98214.03;6244152;28;20242;-67
2022/12/28 12:51:40;;;;;;;7.77;5.17;;;;;;;7.86;100.00;98214.03;6275359;28;20380;-67
2022/12/28 12:55:02;;;;;;;7.53;4.53;;;;;;;7.95;100.00;60274.75;6268079;28;20267;-67
2022/12/28 12:58:13;;;;;;;5.40;3.27;;;;;;;-144.22;100.00;60274.75;6273789;28;20257;-67
2022/12/28 13:01:35;;;;;;;4.90;3.13;;;;;;;-144.22;100.00;60274.75;6271770;28;20231;-67
2022/12/28 13:04:44;;;;;;;3.60;2.90;;;;;;;-144.22;100.00;60274.75;6270517;28;20766;-67
2022/12/28 13:07:48;;;;;;;6.43;4.77;;;;;;;-144.22;100.00;60274.75;6272052;28;20694;-67
2022/12/28 13:10:52;;;;;;;7.37;4.37;;;;;;;-144.22;100.00;60274.75;6272452;28;20223;-67
2022/12/28 13:13:55;;;;;;;7.13;4.93;;;;;;;8.77;100.00;60274.75;6270051;28;20678;-67
2022/12/28 13:16:59;;;;;;;7.70;5.13;;;;;;;-144.22;100.00;60274.75;6268640;28;20761;-67
2022/12/28 13:20:20;;;;;;;8.33;5.07;;;;;;;-144.22;100.00;60274.75;6266104;28;20239;-67
2022/12/28 13:23:24;;;;;;;7.87;5.00;;;;;;;-144.22;100.00;60274.75;6269341;28;20238;-67
2022/12/28 13:26:28;;;;;;;5.63;3.90;;;;;;;-144.22;100.00;60274.75;6283071;28;20304;-67
2022/12/28 13:29:38;;;;;;;4.73;3.50;;;;;;;-144.22;100.00;60274.75;6292730;28;20309;-67
2022/12/28 13:32:52;;;;;;;6.30;4.70;;;;;;;-144.22;100.00;60274.75;6295263;28;20226;-67
2022/12/28 13:36:11;;;;;;;7.70;5.03;;;;;;;-144.22;100.00;60274.75;6295621;28;20229;-67
2022/12/28 13:39:14;;;;;;;11.00;6.63;;;;;;;-144.22;100.00;60274.75;6294831;28;20281;-67
2022/12/28 13:42:18;;;;;;;9.90;7.00;;;;;;;-144.22;100.00;60274.75;6292663;28;20319;-67
2022/12/28 13:45:21;;;;;;;10.57;7.10;;;;;;;5.82;100.00;60274.75;6295761;28;20261;-67
2022/12/28 13:48:26;;;;;;;10.50;7.23;;;;;;;-144.22;100.00;60274.75;6293355;28;20225;-67
2022/12/28 13:51:28;;;;;;;13.50;8.20;;;;;;;-144.22;100.00;60274.75;6272450;28;20231;-67
2022/12/28 13:54:30;;;;;;;11.17;8.23;;;;;;;-144.22;100.00;60274.75;6293276;28;20710;-67
2022/12/28 13:57:35;;;;;;;16.90;8.77;;;;;;;-144.22;100.00;60274.75;6291562;28;20246;-67
2022/12/28 14:00:52;;;;;;;12.37;8.30;;;;;;;-144.22;100.00;60274.75;6294863;28;20219;-67
2022/12/28 14:04:04;;;;;;;11.77;7.73;;;;;;;5.57;100.00;60274.75;6285690;28;20229;-67
2022/12/28 14:07:28;;;;;;;8.80;6.03;;;;;;;-144.22;100.00;60274.75;6291252;28;20723;-67
2022/12/28 14:10:31;;;;;;;12.03;6.77;;;;;;;-144.22;100.00;60274.75;6292393;28;20223;-67
2022/12/28 14:13:34;;;;;;;9.97;6.50;;;;;;;5.43;100.00;78467.94;6293440;28;20236;-67
2022/12/28 14:16:38;;;;;;;8.77;6.33;;;;;;;-144.22;100.00;60274.75;6291243;28;20307;-67
2022/12/28 14:19:43;;;;;;;9.27;6.70;;;;;;;-144.22;100.00;60274.75;6294009;28;20232;-67
2022/12/28 14:22:45;;;;;;;9.73;6.93;;;;;;;5.85;100.00;60274.75;6290516;28;20693;-67
2022/12/28 14:25:49;;;;;;;9.00;6.13;;;;;;;-144.22;100.00;60274.75;6291946;28;20333;-67
2022/12/28 14:28:56;;;;;;;8.83;6.17;;;;;;;4.71;100.00;78370.69;6289902;28;20226;-67
2022/12/28 14:32:03;;;;;;;7.23;5.70;;;;;;;-144.22;100.00;60274.75;6293002;28;20619;-67
2022/12/28 14:35:21;;;;;;;7.73;5.60;;;;;;;4.54;100.00;98146.38;6274334;28;20235;-67
2022/12/28 14:38:30;;;;;;;7.03;5.43;;;;;;;-144.22;100.00;60274.75;6285103;28;20231;-68
2022/12/28 14:41:40;;;;;;;8.13;5.73;;;;;;;-144.22;100.00;60274.75;6290224;28;20754;-67